Carmel Valley Village, California
Current Conditions -  °F | °C
As of 6:54 PM on Saturday 25 Oct 2014 (Local Time) from KMRY Reporting Station
Scattered Clouds Scattered Clouds  
Wind Chill: 64°   Ceiling: Unl
Heat Index: 64°   Visibility: 10mi
Dew Point: 55°   Wind: 0mph
Humidity: 72%   Direction: NA
Pressure: 30.1"   Gusts: NA
Location:  36.407°N, 121.657°W
Report Text: KMRY 260154Z 00000KT 10SM SCT036 18/13 A3010 RMK AO2 SLP204 T01780128
Loading
Personal Weather Stations






























Interactive Weather Map
Tropical Storm Tracking
New forecast layout! Learn more

10-Day Weather Forecast

Advertisements
Track Severe Weather on mobile